Freedom of the Seas — C6UZ7 — position and weather

sailwx.info

Track history (hours):
 
Tides and Currents Weather Stations Pressure Air Temp Water Temp Dewpoint Dewpoint Depression Visibility Wind Speed Wind Dir Waves Ship Positions

Freedom of the Seas

Last reported at 2018-Feb-19 09:00 UTC. Time now 2018-Feb-19 10:14 UTC.
Position N 21°48' W 069°24'.

Length 339 m; draft 9 m.

Type: Passenger vessel. MMSI: 309906000.

Wind from 070 at 24 knots

Barometer 1021.0 mb
Air temperature 24.0 ° C
Visibility: greater than 10.8 NM
Dewpoint 24.0 ° C
Water temperature 24.0 ° C

Date/timePositionNaut miles runAvg speedWind from/ knotsBaromVisibWave heightAir tempDewpointWater temp
2018-Feb-19 09:00N 21°48' W 069°24'47418.9 070 / 241021.010.8 24.024.024.0
2018-Feb-18 08:00N 25°42' W 076°54'14920.4 050 / 81023.010.8 23.023.023.0
2018-Feb-18 00:40N 26°11' W 079°36'320.1
2018-Feb-18 00:30N 26°11' W 079°40'1020.2
2018-Feb-18 00:00N 26°09' W 079°51'918.3
2018-Feb-17 23:30N 26°07' W 080°01'510.4
2018-Feb-17 23:00N 26°06' W 080°07'1 1.3
2018-Feb-17 22:29N 26°05' W 080°07'0 0.0
2018-Feb-17 21:59N 26°05' W 080°07'0 0.0
2018-Feb-17 21:29N 26°05' W 080°07'0 0.0
2018-Feb-17 20:59N 26°05' W 080°07'0 0.0
2018-Feb-17 20:29N 26°05' W 080°07'0 0.0
2018-Feb-17 19:59N 26°05' W 080°07'0 0.0
2018-Feb-17 19:29N 26°05' W 080°07'0 0.0
2018-Feb-17 18:59N 26°05' W 080°07'0 0.0
2018-Feb-17 18:29N 26°05' W 080°07'0 0.0
2018-Feb-17 17:59N 26°05' W 080°07'0 0.0
2018-Feb-17 17:29N 26°05' W 080°07'0 0.0
2018-Feb-17 16:59N 26°05' W 080°07'0 0.0
2018-Feb-17 16:29N 26°05' W 080°07'0 0.0
2018-Feb-17 15:59N 26°05' W 080°07'0 0.0
2018-Feb-17 15:29N 26°05' W 080°07'0 0.0
2018-Feb-17 14:59N 26°05' W 080°07'0 0.0
2018-Feb-17 14:29N 26°05' W 080°07'0 0.0
2018-Feb-17 13:59N 26°05' W 080°07'0 0.0
2018-Feb-17 13:29N 26°05' W 080°07'0 0.0
2018-Feb-17 12:59N 26°05' W 080°07'0 0.0
2018-Feb-17 12:29N 26°05' W 080°07'0 0.0
2018-Feb-17 11:59N 26°05' W 080°07'0 0.0
2018-Feb-17 11:29N 26°05' W 080°07'0 0.0
2018-Feb-17 10:59N 26°05' W 080°07'0 0.0
2018-Feb-17 10:29N 26°05' W 080°07'1 1.4
2018-Feb-17 10:00N 26°06' W 080°07'4 7.6
2018-Feb-17 09:30N 26°05' W 080°03'612.4
2018-Feb-17 09:00N 26°01' W 079°58'713.8
2018-Feb-17 08:30N 25°55' W 079°53'714.1
2018-Feb-17 08:00N 25°49' W 079°51'815.1
2018-Feb-17 07:30N 25°41' W 079°51'816.4
2018-Feb-17 07:00N 25°33' W 079°52'49215.4
2018-Feb-15 23:00N 20°35' W 086°57'612.8
2018-Feb-15 22:31N 20°29' W 086°59'0 0.8
2018-Feb-15 22:00N 20°29' W 086°59'0 0.0
2018-Feb-15 21:31N 20°29' W 086°59'0 0.0
2018-Feb-15 20:57N 20°29' W 086°59'0 0.0
2018-Feb-15 20:30N 20°29' W 086°59'0 0.0
2018-Feb-15 20:01N 20°29' W 086°59'0 0.0
2018-Feb-15 19:24N 20°29' W 086°59'0 0.0
2018-Feb-15 19:01N 20°29' W 086°59'0 0.0
2018-Feb-15 18:30N 20°29' W 086°59'0 0.0
2018-Feb-15 17:57N 20°29' W 086°59'0 0.0
2018-Feb-15 17:27N 20°29' W 086°59'0 0.0
2018-Feb-15 17:00N 20°29' W 086°59'0 0.0
2018-Feb-15 16:27N 20°29' W 086°59'0 0.0
2018-Feb-15 16:00N 20°29' W 086°59'0 0.0
2018-Feb-15 15:30N 20°29' W 086°59'0 0.0
2018-Feb-15 15:00N 20°29' W 086°59'0 0.0
2018-Feb-15 14:30N 20°29' W 086°59'0 0.0
2018-Feb-15 13:54N 20°29' W 086°59'0 0.0
2018-Feb-15 13:31N 20°29' W 086°59'0 0.0
2018-Feb-15 12:58N 20°29' W 086°59'0 0.0
2018-Feb-15 12:30N 20°29' W 086°59'0 0.1
2018-Feb-15 11:59N 20°29' W 086°59'2 4.7
2018-Feb-15 11:30N 20°29' W 087°01'5 9.8
2018-Feb-15 10:59N 20°24' W 087°03'18 9.1
2018-Feb-15 09:00N 20°06' W 087°00'95 4.0 090 / 271020.010.8 25.025.025.0
2018-Feb-14 09:00N 18°54' W 085°54'   070 / 211021.010.8 25.025.026.0
2018-Feb-12 02:20N 25°18' W 080°03'715.7
2018-Feb-12 01:54N 25°25' W 080°01'615.5
2018-Feb-12 01:31N 25°31' W 079°60'815.3
2018-Feb-12 01:01N 25°39' W 079°59'815.4
2018-Feb-12 00:30N 25°46' W 079°59'815.7
2018-Feb-12 00:01N 25°54' W 079°59'714.7
2018-Feb-11 23:30N 26°01' W 080°00'612.1
2018-Feb-11 23:00N 26°06' W 080°04'3 5.8
2018-Feb-11 22:30N 26°05' W 080°07'0 0.3
2018-Feb-11 22:00N 26°05' W 080°07'0 0.0
2018-Feb-11 21:30N 26°05' W 080°07'0 0.0
2018-Feb-11 21:00N 26°05' W 080°07'0 0.0
2018-Feb-11 20:30N 26°05' W 080°07'0 0.0
2018-Feb-11 20:00N 26°05' W 080°07'0 0.0
2018-Feb-11 19:30N 26°05' W 080°07'0 0.0
2018-Feb-11 19:00N 26°05' W 080°07'0 0.0
2018-Feb-11 18:30N 26°05' W 080°07'0 0.0
2018-Feb-11 18:00N 26°05' W 080°07'0 0.0
2018-Feb-11 17:30N 26°05' W 080°07'0 0.0
2018-Feb-11 17:00N 26°05' W 080°07'0 0.0
2018-Feb-11 16:30N 26°05' W 080°07'0 0.0
2018-Feb-11 16:00N 26°05' W 080°07'0 0.0
2018-Feb-11 15:30N 26°05' W 080°07'0 0.0
2018-Feb-11 14:58N 26°05' W 080°07'0 0.0
2018-Feb-11 14:28N 26°05' W 080°07'0 0.0
2018-Feb-11 13:58N 26°05' W 080°07'0 0.0
2018-Feb-11 13:28N 26°05' W 080°07'0 0.0
2018-Feb-11 12:58N 26°05' W 080°07'0 0.0
2018-Feb-11 12:28N 26°05' W 080°07'0 0.0
2018-Feb-11 11:58N 26°05' W 080°07'0 0.0
2018-Feb-11 11:28N 26°05' W 080°07'0 0.0
2018-Feb-11 10:58N 26°05' W 080°07'0 0.0
2018-Feb-11 10:28N 26°05' W 080°07'0 0.0
2018-Feb-11 09:58N 26°05' W 080°07'0 0.0
2018-Feb-11 09:28N 26°05' W 080°07'0 0.0
2018-Feb-11 08:55N 26°05' W 080°07'0 0.0
2018-Feb-11 08:28N 26°05' W 080°07'0 0.0
2018-Feb-11 07:58N 26°05' W 080°07'0 0.0
2018-Feb-11 07:28N 26°05' W 080°07'0 0.0
2018-Feb-11 06:58N 26°05' W 080°07'0 0.0
2018-Feb-11 06:28N 26°05' W 080°07'0 0.2
2018-Feb-11 06:00N 26°05' W 080°07'2 3.4
2018-Feb-11 05:30N 26°06' W 080°05'612.2
2018-Feb-11 05:00N 26°01' W 080°00'1223.3
2018-Feb-11 04:31N 25°50' W 079°57'1223.8
2018-Feb-11 04:00N 25°39' W 079°54'1223.1
2018-Feb-11 03:30N 25°27' W 079°51'35819.3
2018-Feb-10 09:00N 21°12' W 075°18'8617.3 100 / 271018.010.8 25.023.526.0
2018-Feb-10 04:00N 20°36' W 073°54'182 9.6 070 / 321019.010.8 24.024.024.0
2018-Feb-09 09:00N 20°06' W 070°42'   080 / 231019.010.8 24.022.526.0
Track history (hours):
 
Tides and Currents Weather Stations Pressure Air Temp Water Temp Dewpoint Dewpoint Depression Visibility Wind Speed Wind Dir Waves Ship Positions

Freedom of the Seas

Last reported at 2018-Feb-19 09:00 UTC. Time now 2018-Feb-19 10:14 UTC.
Position N 21°48' W 069°24'.

Length 339 m; draft 9 m.

Type: Passenger vessel. MMSI: 309906000.

Wind from 070 at 24 knots

Barometer 1021.0 mb
Air temperature 24.0 ° C
Visibility: greater than 10.8 NM
Dewpoint 24.0 ° C
Water temperature 24.0 ° C

Date/timePositionNaut miles runAvg speedWind from/ knotsBaromVisibWave heightAir tempDewpointWater temp
2018-Feb-19 09:00N 21°48' W 069°24'47418.9 070 / 241021.010.8 24.024.024.0
2018-Feb-18 08:00N 25°42' W 076°54'14920.4 050 / 81023.010.8 23.023.023.0
2018-Feb-18 00:40N 26°11' W 079°36'320.1
2018-Feb-18 00:30N 26°11' W 079°40'1020.2
2018-Feb-18 00:00N 26°09' W 079°51'918.3
2018-Feb-17 23:30N 26°07' W 080°01'510.4
2018-Feb-17 23:00N 26°06' W 080°07'1 1.3
2018-Feb-17 22:29N 26°05' W 080°07'0 0.0
2018-Feb-17 21:59N 26°05' W 080°07'0 0.0
2018-Feb-17 21:29N 26°05' W 080°07'0 0.0
2018-Feb-17 20:59N 26°05' W 080°07'0 0.0
2018-Feb-17 20:29N 26°05' W 080°07'0 0.0
2018-Feb-17 19:59N 26°05' W 080°07'0 0.0
2018-Feb-17 19:29N 26°05' W 080°07'0 0.0
2018-Feb-17 18:59N 26°05' W 080°07'0 0.0
2018-Feb-17 18:29N 26°05' W 080°07'0 0.0
2018-Feb-17 17:59N 26°05' W 080°07'0 0.0
2018-Feb-17 17:29N 26°05' W 080°07'0 0.0
2018-Feb-17 16:59N 26°05' W 080°07'0 0.0
2018-Feb-17 16:29N 26°05' W 080°07'0 0.0
2018-Feb-17 15:59N 26°05' W 080°07'0 0.0
2018-Feb-17 15:29N 26°05' W 080°07'0 0.0
2018-Feb-17 14:59N 26°05' W 080°07'0 0.0
2018-Feb-17 14:29N 26°05' W 080°07'0 0.0
2018-Feb-17 13:59N 26°05' W 080°07'0 0.0
2018-Feb-17 13:29N 26°05' W 080°07'0 0.0
2018-Feb-17 12:59N 26°05' W 080°07'0 0.0
2018-Feb-17 12:29N 26°05' W 080°07'0 0.0
2018-Feb-17 11:59N 26°05' W 080°07'0 0.0
2018-Feb-17 11:29N 26°05' W 080°07'0 0.0
2018-Feb-17 10:59N 26°05' W 080°07'0 0.0
2018-Feb-17 10:29N 26°05' W 080°07'1 1.4
2018-Feb-17 10:00N 26°06' W 080°07'4 7.6
2018-Feb-17 09:30N 26°05' W 080°03'612.4
2018-Feb-17 09:00N 26°01' W 079°58'713.8
2018-Feb-17 08:30N 25°55' W 079°53'714.1
2018-Feb-17 08:00N 25°49' W 079°51'815.1
2018-Feb-17 07:30N 25°41' W 079°51'816.4
2018-Feb-17 07:00N 25°33' W 079°52'49215.4
2018-Feb-15 23:00N 20°35' W 086°57'612.8
2018-Feb-15 22:31N 20°29' W 086°59'0 0.8
2018-Feb-15 22:00N 20°29' W 086°59'0 0.0
2018-Feb-15 21:31N 20°29' W 086°59'0 0.0
2018-Feb-15 20:57N 20°29' W 086°59'0 0.0
2018-Feb-15 20:30N 20°29' W 086°59'0 0.0
2018-Feb-15 20:01N 20°29' W 086°59'0 0.0
2018-Feb-15 19:24N 20°29' W 086°59'0 0.0
2018-Feb-15 19:01N 20°29' W 086°59'0 0.0
2018-Feb-15 18:30N 20°29' W 086°59'0 0.0
2018-Feb-15 17:57N 20°29' W 086°59'0 0.0
2018-Feb-15 17:27N 20°29' W 086°59'0 0.0
2018-Feb-15 17:00N 20°29' W 086°59'0 0.0
2018-Feb-15 16:27N 20°29' W 086°59'0 0.0
2018-Feb-15 16:00N 20°29' W 086°59'0 0.0
2018-Feb-15 15:30N 20°29' W 086°59'0 0.0
2018-Feb-15 15:00N 20°29' W 086°59'0 0.0
2018-Feb-15 14:30N 20°29' W 086°59'0 0.0
2018-Feb-15 13:54N 20°29' W 086°59'0 0.0
2018-Feb-15 13:31N 20°29' W 086°59'0 0.0
2018-Feb-15 12:58N 20°29' W 086°59'0 0.0
2018-Feb-15 12:30N 20°29' W 086°59'0 0.1
2018-Feb-15 11:59N 20°29' W 086°59'2 4.7
2018-Feb-15 11:30N 20°29' W 087°01'5 9.8
2018-Feb-15 10:59N 20°24' W 087°03'18 9.1
2018-Feb-15 09:00N 20°06' W 087°00'95 4.0 090 / 271020.010.8 25.025.025.0
2018-Feb-14 09:00N 18°54' W 085°54'   070 / 211021.010.8 25.025.026.0
2018-Feb-12 02:20N 25°18' W 080°03'715.7
2018-Feb-12 01:54N 25°25' W 080°01'615.5
2018-Feb-12 01:31N 25°31' W 079°60'815.3
2018-Feb-12 01:01N 25°39' W 079°59'815.4
2018-Feb-12 00:30N 25°46' W 079°59'815.7
2018-Feb-12 00:01N 25°54' W 079°59'714.7
2018-Feb-11 23:30N 26°01' W 080°00'612.1
2018-Feb-11 23:00N 26°06' W 080°04'3 5.8
2018-Feb-11 22:30N 26°05' W 080°07'0 0.3
2018-Feb-11 22:00N 26°05' W 080°07'0 0.0
2018-Feb-11 21:30N 26°05' W 080°07'0 0.0
2018-Feb-11 21:00N 26°05' W 080°07'0 0.0
2018-Feb-11 20:30N 26°05' W 080°07'0 0.0
2018-Feb-11 20:00N 26°05' W 080°07'0 0.0
2018-Feb-11 19:30N 26°05' W 080°07'0 0.0
2018-Feb-11 19:00N 26°05' W 080°07'0 0.0
2018-Feb-11 18:30N 26°05' W 080°07'0 0.0
2018-Feb-11 18:00N 26°05' W 080°07'0 0.0
2018-Feb-11 17:30N 26°05' W 080°07'0 0.0
2018-Feb-11 17:00N 26°05' W 080°07'0 0.0
2018-Feb-11 16:30N 26°05' W 080°07'0 0.0
2018-Feb-11 16:00N 26°05' W 080°07'0 0.0
2018-Feb-11 15:30N 26°05' W 080°07'0 0.0
2018-Feb-11 14:58N 26°05' W 080°07'0 0.0
2018-Feb-11 14:28N 26°05' W 080°07'0 0.0
2018-Feb-11 13:58N 26°05' W 080°07'0 0.0
2018-Feb-11 13:28N 26°05' W 080°07'0 0.0
2018-Feb-11 12:58N 26°05' W 080°07'0 0.0
2018-Feb-11 12:28N 26°05' W 080°07'0 0.0
2018-Feb-11 11:58N 26°05' W 080°07'0 0.0
2018-Feb-11 11:28N 26°05' W 080°07'0 0.0
2018-Feb-11 10:58N 26°05' W 080°07'0 0.0
2018-Feb-11 10:28N 26°05' W 080°07'0 0.0
2018-Feb-11 09:58N 26°05' W 080°07'0 0.0
2018-Feb-11 09:28N 26°05' W 080°07'0 0.0
2018-Feb-11 08:55N 26°05' W 080°07'0 0.0
2018-Feb-11 08:28N 26°05' W 080°07'0 0.0
2018-Feb-11 07:58N 26°05' W 080°07'0 0.0
2018-Feb-11 07:28N 26°05' W 080°07'0 0.0
2018-Feb-11 06:58N 26°05' W 080°07'0 0.0
2018-Feb-11 06:28N 26°05' W 080°07'0 0.2
2018-Feb-11 06:00N 26°05' W 080°07'2 3.4
2018-Feb-11 05:30N 26°06' W 080°05'612.2
2018-Feb-11 05:00N 26°01' W 080°00'1223.3
2018-Feb-11 04:31N 25°50' W 079°57'1223.8
2018-Feb-11 04:00N 25°39' W 079°54'1223.1
2018-Feb-11 03:30N 25°27' W 079°51'35819.3
2018-Feb-10 09:00N 21°12' W 075°18'8617.3 100 / 271018.010.8 25.023.526.0
2018-Feb-10 04:00N 20°36' W 073°54'182 9.6 070 / 321019.010.8 24.024.024.0
2018-Feb-09 09:00N 20°06' W 070°42'   080 / 231019.010.8 24.022.526.0

Dump ship's entire track history